sensor_id;sensor_type;location;lat;lon;timestamp;P1;durP1;ratioP1;P2;durP2;ratioP2
2177;SDS011;1095;50.992;6.798;2023-10-13T00:00:32;20.10;;;13.80;;
2177;SDS011;1095;50.992;6.798;2023-10-13T00:03:01;20.60;;;14.32;;
2177;SDS011;1095;50.992;6.798;2023-10-13T00:05:28;19.75;;;13.82;;
2177;SDS011;1095;50.992;6.798;2023-10-13T00:07:55;16.67;;;12.65;;
2177;SDS011;1095;50.992;6.798;2023-10-13T00:10:25;20.92;;;14.48;;
2177;SDS011;1095;50.992;6.798;2023-10-13T00:12:52;18.13;;;13.35;;
2177;SDS011;1095;50.992;6.798;2023-10-13T00:15:20;17.95;;;13.50;;
2177;SDS011;1095;50.992;6.798;2023-10-13T00:17:53;21.25;;;13.55;;
2177;SDS011;1095;50.992;6.798;2023-10-13T00:20:20;19.27;;;13.52;;
2177;SDS011;1095;50.992;6.798;2023-10-13T00:23:04;19.02;;;13.85;;
2177;SDS011;1095;50.992;6.798;2023-10-13T00:25:31;21.33;;;13.63;;
2177;SDS011;1095;50.992;6.798;2023-10-13T00:28:08;20.27;;;13.30;;
2177;SDS011;1095;50.992;6.798;2023-10-13T00:30:36;17.13;;;13.32;;
2177;SDS011;1095;50.992;6.798;2023-10-13T00:33:03;18.70;;;12.80;;
2177;SDS011;1095;50.992;6.798;2023-10-13T00:35:30;22.23;;;13.38;;
2177;SDS011;1095;50.992;6.798;2023-10-13T00:38:02;18.30;;;13.02;;
2177;SDS011;1095;50.992;6.798;2023-10-13T00:40:37;21.23;;;13.27;;
2177;SDS011;1095;50.992;6.798;2023-10-13T00:43:09;22.63;;;13.43;;
2177;SDS011;1095;50.992;6.798;2023-10-13T00:45:56;21.30;;;13.93;;
2177;SDS011;1095;50.992;6.798;2023-10-13T00:48:31;20.73;;;13.93;;
2177;SDS011;1095;50.992;6.798;2023-10-13T00:50:58;21.98;;;14.50;;
2177;SDS011;1095;50.992;6.798;2023-10-13T00:53:28;23.20;;;14.73;;
2177;SDS011;1095;50.992;6.798;2023-10-13T00:55:58;18.25;;;14.07;;
2177;SDS011;1095;50.992;6.798;2023-10-13T01:00:58;14.98;;;12.70;;
2177;SDS011;1095;50.992;6.798;2023-10-13T01:03:42;20.02;;;14.48;;
2177;SDS011;1095;50.992;6.798;2023-10-13T01:06:09;19.85;;;14.52;;
2177;SDS011;1095;50.992;6.798;2023-10-13T01:08:37;22.98;;;13.65;;
2177;SDS011;1095;50.992;6.798;2023-10-13T01:11:03;21.23;;;13.63;;
2177;SDS011;1095;50.992;6.798;2023-10-13T01:13:32;21.63;;;14.45;;
2177;SDS011;1095;50.992;6.798;2023-10-13T01:16:02;16.90;;;13.80;;
2177;SDS011;1095;50.992;6.798;2023-10-13T01:18:29;19.42;;;14.20;;
2177;SDS011;1095;50.992;6.798;2023-10-13T01:20:55;23.42;;;15.05;;
2177;SDS011;1095;50.992;6.798;2023-10-13T01:23:27;24.65;;;14.60;;
2177;SDS011;1095;50.992;6.798;2023-10-13T01:25:53;19.20;;;14.48;;
2177;SDS011;1095;50.992;6.798;2023-10-13T01:28:21;22.58;;;14.70;;
2177;SDS011;1095;50.992;6.798;2023-10-13T01:30:47;20.27;;;14.52;;
2177;SDS011;1095;50.992;6.798;2023-10-13T01:33:16;19.95;;;15.02;;
2177;SDS011;1095;50.992;6.798;2023-10-13T01:35:41;20.75;;;16.38;;
2177;SDS011;1095;50.992;6.798;2023-10-13T01:38:12;22.77;;;16.05;;
2177;SDS011;1095;50.992;6.798;2023-10-13T01:40:40;22.13;;;14.77;;
2177;SDS011;1095;50.992;6.798;2023-10-13T01:43:08;24.20;;;15.68;;
2177;SDS011;1095;50.992;6.798;2023-10-13T01:45:36;22.60;;;15.55;;
2177;SDS011;1095;50.992;6.798;2023-10-13T01:48:14;19.40;;;15.85;;
2177;SDS011;1095;50.992;6.798;2023-10-13T01:50:42;21.08;;;14.27;;
2177;SDS011;1095;50.992;6.798;2023-10-13T01:53:12;20.23;;;14.80;;
2177;SDS011;1095;50.992;6.798;2023-10-13T01:55:40;20.92;;;15.63;;
2177;SDS011;1095;50.992;6.798;2023-10-13T01:58:09;19.42;;;15.30;;
2177;SDS011;1095;50.992;6.798;2023-10-13T02:00:40;23.55;;;15.43;;
2177;SDS011;1095;50.992;6.798;2023-10-13T02:03:08;20.88;;;15.05;;
2177;SDS011;1095;50.992;6.798;2023-10-13T02:05:40;23.65;;;15.43;;
2177;SDS011;1095;50.992;6.798;2023-10-13T02:08:09;21.65;;;14.52;;
2177;SDS011;1095;50.992;6.798;2023-10-13T02:10:42;32.15;;;15.60;;
2177;SDS011;1095;50.992;6.798;2023-10-13T02:15:41;22.35;;;14.95;;
2177;SDS011;1095;50.992;6.798;2023-10-13T02:18:09;19.42;;;15.27;;
2177;SDS011;1095;50.992;6.798;2023-10-13T02:20:35;18.40;;;14.82;;
2177;SDS011;1095;50.992;6.798;2023-10-13T02:25:35;22.05;;;15.48;;
2177;SDS011;1095;50.992;6.798;2023-10-13T02:28:09;22.25;;;15.75;;
2177;SDS011;1095;50.992;6.798;2023-10-13T02:30:39;18.95;;;15.50;;
2177;SDS011;1095;50.992;6.798;2023-10-13T02:33:09;23.55;;;16.50;;
2177;SDS011;1095;50.992;6.798;2023-10-13T02:35:37;23.27;;;15.48;;
2177;SDS011;1095;50.992;6.798;2023-10-13T02:38:15;23.58;;;15.63;;
2177;SDS011;1095;50.992;6.798;2023-10-13T02:40:42;22.38;;;16.17;;
2177;SDS011;1095;50.992;6.798;2023-10-13T02:43:10;20.90;;;15.48;;
2177;SDS011;1095;50.992;6.798;2023-10-13T02:45:36;21.02;;;15.65;;
2177;SDS011;1095;50.992;6.798;2023-10-13T02:48:03;19.42;;;14.82;;
2177;SDS011;1095;50.992;6.798;2023-10-13T02:50:39;22.17;;;15.73;;
2177;SDS011;1095;50.992;6.798;2023-10-13T02:53:10;19.77;;;15.93;;
2177;SDS011;1095;50.992;6.798;2023-10-13T02:55:38;22.83;;;16.15;;
2177;SDS011;1095;50.992;6.798;2023-10-13T02:58:15;23.08;;;16.20;;
2177;SDS011;1095;50.992;6.798;2023-10-13T03:00:42;22.50;;;16.75;;
2177;SDS011;1095;50.992;6.798;2023-10-13T03:03:09;22.77;;;16.48;;
2177;SDS011;1095;50.992;6.798;2023-10-13T03:05:35;21.80;;;16.15;;
2177;SDS011;1095;50.992;6.798;2023-10-13T03:08:04;23.20;;;16.13;;
2177;SDS011;1095;50.992;6.798;2023-10-13T03:10:31;24.65;;;16.13;;
2177;SDS011;1095;50.992;6.798;2023-10-13T03:12:57;25.17;;;17.23;;
2177;SDS011;1095;50.992;6.798;2023-10-13T03:15:28;21.08;;;17.02;;
2177;SDS011;1095;50.992;6.798;2023-10-13T03:18:00;21.33;;;15.63;;
2177;SDS011;1095;50.992;6.798;2023-10-13T03:20:27;21.58;;;16.55;;
2177;SDS011;1095;50.992;6.798;2023-10-13T03:22:57;21.75;;;16.98;;
2177;SDS011;1095;50.992;6.798;2023-10-13T03:25:22;24.65;;;17.10;;
2177;SDS011;1095;50.992;6.798;2023-10-13T03:27:54;23.98;;;17.25;;
2177;SDS011;1095;50.992;6.798;2023-10-13T03:33:00;26.55;;;17.25;;
2177;SDS011;1095;50.992;6.798;2023-10-13T03:35:33;21.67;;;17.33;;
2177;SDS011;1095;50.992;6.798;2023-10-13T03:38:17;23.80;;;17.13;;
2177;SDS011;1095;50.992;6.798;2023-10-13T03:40:44;30.80;;;19.27;;
2177;SDS011;1095;50.992;6.798;2023-10-13T03:43:32;21.75;;;17.35;;
2177;SDS011;1095;50.992;6.798;2023-10-13T03:46:11;22.77;;;17.40;;
2177;SDS011;1095;50.992;6.798;2023-10-13T03:48:37;24.52;;;17.17;;
2177;SDS011;1095;50.992;6.798;2023-10-13T03:51:17;25.52;;;17.75;;
2177;SDS011;1095;50.992;6.798;2023-10-13T03:53:44;22.67;;;17.55;;
2177;SDS011;1095;50.992;6.798;2023-10-13T03:56:17;35.67;;;18.27;;
2177;SDS011;1095;50.992;6.798;2023-10-13T03:58:51;25.45;;;17.27;;
2177;SDS011;1095;50.992;6.798;2023-10-13T04:01:22;26.05;;;17.95;;
2177;SDS011;1095;50.992;6.798;2023-10-13T04:03:56;27.30;;;17.92;;
2177;SDS011;1095;50.992;6.798;2023-10-13T04:06:28;28.33;;;18.60;;
2177;SDS011;1095;50.992;6.798;2023-10-13T04:09:16;25.75;;;17.95;;
2177;SDS011;1095;50.992;6.798;2023-10-13T04:12:01;27.33;;;17.90;;
2177;SDS011;1095;50.992;6.798;2023-10-13T04:15:06;25.95;;;18.65;;
2177;SDS011;1095;50.992;6.798;2023-10-13T04:17:48;22.73;;;17.58;;
2177;SDS011;1095;50.992;6.798;2023-10-13T04:20:15;23.55;;;17.45;;
2177;SDS011;1095;50.992;6.798;2023-10-13T04:22:58;23.88;;;17.60;;
2177;SDS011;1095;50.992;6.798;2023-10-13T04:25:44;26.65;;;17.95;;
2177;SDS011;1095;50.992;6.798;2023-10-13T04:28:28;26.00;;;18.25;;
2177;SDS011;1095;50.992;6.798;2023-10-13T04:31:02;23.98;;;18.17;;
2177;SDS011;1095;50.992;6.798;2023-10-13T04:33:39;21.27;;;18.02;;
2177;SDS011;1095;50.992;6.798;2023-10-13T04:36:18;26.80;;;20.08;;
2177;SDS011;1095;50.992;6.798;2023-10-13T04:39:01;23.92;;;18.08;;
2177;SDS011;1095;50.992;6.798;2023-10-13T04:41:35;27.10;;;18.63;;
2177;SDS011;1095;50.992;6.798;2023-10-13T04:44:04;25.75;;;19.60;;
2177;SDS011;1095;50.992;6.798;2023-10-13T04:46:51;27.52;;;17.98;;
2177;SDS011;1095;50.992;6.798;2023-10-13T04:49:36;26.67;;;18.85;;
2177;SDS011;1095;50.992;6.798;2023-10-13T04:52:17;25.20;;;19.45;;
2177;SDS011;1095;50.992;6.798;2023-10-13T04:55:07;29.05;;;18.67;;
2177;SDS011;1095;50.992;6.798;2023-10-13T04:57:49;28.30;;;19.03;;
2177;SDS011;1095;50.992;6.798;2023-10-13T05:00:25;32.13;;;19.48;;
2177;SDS011;1095;50.992;6.798;2023-10-13T05:03:09;27.35;;;17.92;;
2177;SDS011;1095;50.992;6.798;2023-10-13T05:06:00;23.83;;;17.85;;
2177;SDS011;1095;50.992;6.798;2023-10-13T05:08:52;28.60;;;18.98;;
2177;SDS011;1095;50.992;6.798;2023-10-13T05:11:36;24.92;;;18.23;;
2177;SDS011;1095;50.992;6.798;2023-10-13T05:14:20;23.15;;;18.25;;
2177;SDS011;1095;50.992;6.798;2023-10-13T05:17:06;23.77;;;18.60;;
2177;SDS011;1095;50.992;6.798;2023-10-13T05:19:51;30.30;;;20.17;;
2177;SDS011;1095;50.992;6.798;2023-10-13T05:22:40;27.83;;;19.35;;
2177;SDS011;1095;50.992;6.798;2023-10-13T05:25:24;23.70;;;19.20;;
2177;SDS011;1095;50.992;6.798;2023-10-13T05:28:08;26.80;;;18.88;;
2177;SDS011;1095;50.992;6.798;2023-10-13T05:30:52;26.83;;;18.10;;
2177;SDS011;1095;50.992;6.798;2023-10-13T05:33:36;26.02;;;18.33;;
2177;SDS011;1095;50.992;6.798;2023-10-13T05:36:20;26.67;;;18.48;;
2177;SDS011;1095;50.992;6.798;2023-10-13T05:39:05;29.25;;;19.20;;
2177;SDS011;1095;50.992;6.798;2023-10-13T05:41:49;23.85;;;18.00;;
2177;SDS011;1095;50.992;6.798;2023-10-13T05:44:45;27.50;;;18.80;;
2177;SDS011;1095;50.992;6.798;2023-10-13T05:47:22;27.08;;;18.88;;
2177;SDS011;1095;50.992;6.798;2023-10-13T05:50:08;24.20;;;17.95;;
2177;SDS011;1095;50.992;6.798;2023-10-13T05:52:53;25.67;;;19.48;;
2177;SDS011;1095;50.992;6.798;2023-10-13T05:55:39;28.60;;;19.23;;
2177;SDS011;1095;50.992;6.798;2023-10-13T05:58:28;26.27;;;19.77;;
2177;SDS011;1095;50.992;6.798;2023-10-13T06:01:12;25.83;;;18.50;;
2177;SDS011;1095;50.992;6.798;2023-10-13T06:03:57;29.50;;;18.67;;
2177;SDS011;1095;50.992;6.798;2023-10-13T06:06:41;25.63;;;18.52;;
2177;SDS011;1095;50.992;6.798;2023-10-13T06:09:25;29.73;;;19.40;;
2177;SDS011;1095;50.992;6.798;2023-10-13T06:12:10;27.30;;;19.58;;
2177;SDS011;1095;50.992;6.798;2023-10-13T06:14:53;32.42;;;20.27;;
2177;SDS011;1095;50.992;6.798;2023-10-13T06:17:37;28.83;;;19.45;;
2177;SDS011;1095;50.992;6.798;2023-10-13T06:20:21;26.08;;;19.33;;
2177;SDS011;1095;50.992;6.798;2023-10-13T06:23:05;26.55;;;20.25;;
2177;SDS011;1095;50.992;6.798;2023-10-13T06:25:53;26.80;;;19.83;;
2177;SDS011;1095;50.992;6.798;2023-10-13T06:28:38;29.92;;;19.40;;
2177;SDS011;1095;50.992;6.798;2023-10-13T06:31:09;25.77;;;18.45;;
2177;SDS011;1095;50.992;6.798;2023-10-13T06:33:46;31.80;;;20.30;;
2177;SDS011;1095;50.992;6.798;2023-10-13T06:36:12;26.38;;;19.55;;
2177;SDS011;1095;50.992;6.798;2023-10-13T06:38:39;29.90;;;19.15;;
2177;SDS011;1095;50.992;6.798;2023-10-13T06:41:07;28.27;;;19.38;;
2177;SDS011;1095;50.992;6.798;2023-10-13T06:43:34;28.80;;;18.88;;
2177;SDS011;1095;50.992;6.798;2023-10-13T06:46:06;28.80;;;17.75;;
2177;SDS011;1095;50.992;6.798;2023-10-13T06:48:39;25.40;;;17.60;;
2177;SDS011;1095;50.992;6.798;2023-10-13T06:51:06;23.67;;;17.15;;
2177;SDS011;1095;50.992;6.798;2023-10-13T06:53:43;24.08;;;16.90;;
2177;SDS011;1095;50.992;6.798;2023-10-13T06:56:12;23.55;;;16.55;;
2177;SDS011;1095;50.992;6.798;2023-10-13T06:58:43;26.90;;;17.23;;
2177;SDS011;1095;50.992;6.798;2023-10-13T07:01:13;23.77;;;16.23;;
2177;SDS011;1095;50.992;6.798;2023-10-13T07:03:46;23.45;;;15.45;;
2177;SDS011;1095;50.992;6.798;2023-10-13T07:06:17;23.48;;;15.65;;
2177;SDS011;1095;50.992;6.798;2023-10-13T07:08:44;24.90;;;15.68;;
2177;SDS011;1095;50.992;6.798;2023-10-13T07:11:17;25.08;;;14.07;;
2177;SDS011;1095;50.992;6.798;2023-10-13T07:13:58;25.23;;;14.93;;
2177;SDS011;1095;50.992;6.798;2023-10-13T07:16:27;26.25;;;14.20;;
2177;SDS011;1095;50.992;6.798;2023-10-13T07:19:00;23.67;;;13.70;;
2177;SDS011;1095;50.992;6.798;2023-10-13T07:21:30;24.42;;;13.63;;
2177;SDS011;1095;50.992;6.798;2023-10-13T07:23:57;25.88;;;14.13;;
2177;SDS011;1095;50.992;6.798;2023-10-13T07:26:33;22.40;;;13.15;;
2177;SDS011;1095;50.992;6.798;2023-10-13T07:29:00;19.02;;;13.00;;
2177;SDS011;1095;50.992;6.798;2023-10-13T07:31:28;22.13;;;12.73;;
2177;SDS011;1095;50.992;6.798;2023-10-13T07:33:54;18.25;;;12.43;;
2177;SDS011;1095;50.992;6.798;2023-10-13T07:36:30;23.70;;;12.63;;
2177;SDS011;1095;50.992;6.798;2023-10-13T07:39:04;17.02;;;12.75;;
2177;SDS011;1095;50.992;6.798;2023-10-13T07:41:45;20.45;;;13.25;;
2177;SDS011;1095;50.992;6.798;2023-10-13T07:44:16;20.02;;;12.93;;
2177;SDS011;1095;50.992;6.798;2023-10-13T07:46:46;22.70;;;12.55;;
2177;SDS011;1095;50.992;6.798;2023-10-13T07:49:22;22.67;;;12.00;;
2177;SDS011;1095;50.992;6.798;2023-10-13T07:51:49;24.02;;;11.93;;
2177;SDS011;1095;50.992;6.798;2023-10-13T07:54:22;23.90;;;12.23;;
2177;SDS011;1095;50.992;6.798;2023-10-13T07:56:49;22.70;;;11.98;;
2177;SDS011;1095;50.992;6.798;2023-10-13T07:59:16;22.23;;;11.13;;
2177;SDS011;1095;50.992;6.798;2023-10-13T08:01:48;19.27;;;11.60;;
2177;SDS011;1095;50.992;6.798;2023-10-13T08:04:36;18.02;;;11.00;;
2177;SDS011;1095;50.992;6.798;2023-10-13T08:07:02;25.60;;;11.70;;
2177;SDS011;1095;50.992;6.798;2023-10-13T08:09:38;20.73;;;10.63;;
2177;SDS011;1095;50.992;6.798;2023-10-13T08:12:06;22.08;;;11.55;;
2177;SDS011;1095;50.992;6.798;2023-10-13T08:14:37;16.83;;;10.57;;
2177;SDS011;1095;50.992;6.798;2023-10-13T08:17:07;23.27;;;10.88;;
2177;SDS011;1095;50.992;6.798;2023-10-13T08:19:36;25.42;;;11.13;;
2177;SDS011;1095;50.992;6.798;2023-10-13T08:22:09;21.25;;;11.85;;
2177;SDS011;1095;50.992;6.798;2023-10-13T08:25:00;23.75;;;11.55;;
2177;SDS011;1095;50.992;6.798;2023-10-13T08:27:49;21.20;;;10.65;;
2177;SDS011;1095;50.992;6.798;2023-10-13T08:30:30;19.48;;;10.85;;
2177;SDS011;1095;50.992;6.798;2023-10-13T08:33:08;19.42;;;10.63;;
2177;SDS011;1095;50.992;6.798;2023-10-13T08:35:42;23.00;;;10.95;;
2177;SDS011;1095;50.992;6.798;2023-10-13T08:38:21;18.33;;;9.75;;
2177;SDS011;1095;50.992;6.798;2023-10-13T08:40:54;20.92;;;9.68;;
2177;SDS011;1095;50.992;6.798;2023-10-13T08:43:42;20.10;;;11.30;;
2177;SDS011;1095;50.992;6.798;2023-10-13T08:46:10;19.98;;;9.85;;
2177;SDS011;1095;50.992;6.798;2023-10-13T08:48:53;19.15;;;10.52;;
2177;SDS011;1095;50.992;6.798;2023-10-13T08:51:30;21.58;;;9.07;;
2177;SDS011;1095;50.992;6.798;2023-10-13T08:54:11;17.40;;;9.32;;
2177;SDS011;1095;50.992;6.798;2023-10-13T08:56:45;21.70;;;9.02;;
2177;SDS011;1095;50.992;6.798;2023-10-13T08:59:19;17.63;;;9.02;;
2177;SDS011;1095;50.992;6.798;2023-10-13T09:01:58;18.92;;;8.23;;
2177;SDS011;1095;50.992;6.798;2023-10-13T09:04:26;20.98;;;8.52;;
2177;SDS011;1095;50.992;6.798;2023-10-13T09:06:59;15.05;;;7.90;;
2177;SDS011;1095;50.992;6.798;2023-10-13T09:09:33;14.45;;;8.00;;
2177;SDS011;1095;50.992;6.798;2023-10-13T09:12:24;16.25;;;7.90;;
2177;SDS011;1095;50.992;6.798;2023-10-13T09:15:01;16.38;;;8.20;;
2177;SDS011;1095;50.992;6.798;2023-10-13T09:17:31;15.20;;;7.97;;
2177;SDS011;1095;50.992;6.798;2023-10-13T09:20:00;18.67;;;8.13;;
2177;SDS011;1095;50.992;6.798;2023-10-13T09:22:49;17.67;;;8.05;;
2177;SDS011;1095;50.992;6.798;2023-10-13T09:25:21;15.65;;;8.38;;
2177;SDS011;1095;50.992;6.798;2023-10-13T09:27:48;17.42;;;8.93;;
2177;SDS011;1095;50.992;6.798;2023-10-13T09:30:18;12.15;;;7.85;;
2177;SDS011;1095;50.992;6.798;2023-10-13T09:32:45;16.48;;;8.38;;
2177;SDS011;1095;50.992;6.798;2023-10-13T09:35:18;18.33;;;8.60;;
2177;SDS011;1095;50.992;6.798;2023-10-13T09:37:48;16.00;;;8.50;;
2177;SDS011;1095;50.992;6.798;2023-10-13T09:40:15;16.77;;;8.70;;
2177;SDS011;1095;50.992;6.798;2023-10-13T09:42:54;11.23;;;8.32;;
2177;SDS011;1095;50.992;6.798;2023-10-13T09:45:23;17.98;;;8.32;;
2177;SDS011;1095;50.992;6.798;2023-10-13T09:47:54;17.35;;;9.07;;
2177;SDS011;1095;50.992;6.798;2023-10-13T09:50:32;16.60;;;8.65;;
2177;SDS011;1095;50.992;6.798;2023-10-13T09:53:06;22.85;;;9.90;;
2177;SDS011;1095;50.992;6.798;2023-10-13T09:55:35;13.52;;;8.80;;
2177;SDS011;1095;50.992;6.798;2023-10-13T09:58:04;21.65;;;9.40;;
2177;SDS011;1095;50.992;6.798;2023-10-13T10:00:35;18.27;;;8.98;;
2177;SDS011;1095;50.992;6.798;2023-10-13T10:03:13;13.68;;;9.35;;
2177;SDS011;1095;50.992;6.798;2023-10-13T10:05:59;16.87;;;8.87;;
2177;SDS011;1095;50.992;6.798;2023-10-13T10:08:31;19.30;;;9.48;;
2177;SDS011;1095;50.992;6.798;2023-10-13T10:11:16;17.67;;;9.50;;
2177;SDS011;1095;50.992;6.798;2023-10-13T10:13:53;15.75;;;8.93;;
2177;SDS011;1095;50.992;6.798;2023-10-13T10:16:32;17.73;;;8.65;;
2177;SDS011;1095;50.992;6.798;2023-10-13T10:19:02;14.00;;;9.27;;
2177;SDS011;1095;50.992;6.798;2023-10-13T10:21:34;17.77;;;8.98;;
2177;SDS011;1095;50.992;6.798;2023-10-13T10:24:01;15.35;;;9.00;;
2177;SDS011;1095;50.992;6.798;2023-10-13T10:26:33;19.70;;;9.55;;
2177;SDS011;1095;50.992;6.798;2023-10-13T10:28:59;22.00;;;9.60;;
2177;SDS011;1095;50.992;6.798;2023-10-13T10:31:39;18.00;;;8.88;;
2177;SDS011;1095;50.992;6.798;2023-10-13T10:34:11;15.75;;;8.98;;
2177;SDS011;1095;50.992;6.798;2023-10-13T10:36:40;13.70;;;8.32;;
2177;SDS011;1095;50.992;6.798;2023-10-13T10:39:08;16.23;;;8.27;;
2177;SDS011;1095;50.992;6.798;2023-10-13T10:41:37;18.10;;;9.90;;
2177;SDS011;1095;50.992;6.798;2023-10-13T10:44:10;17.55;;;9.38;;
2177;SDS011;1095;50.992;6.798;2023-10-13T10:46:42;21.05;;;8.93;;
2177;SDS011;1095;50.992;6.798;2023-10-13T10:49:17;23.30;;;9.45;;
2177;SDS011;1095;50.992;6.798;2023-10-13T10:51:54;17.60;;;9.00;;
2177;SDS011;1095;50.992;6.798;2023-10-13T10:54:26;20.35;;;8.93;;
2177;SDS011;1095;50.992;6.798;2023-10-13T10:56:56;20.17;;;8.95;;
2177;SDS011;1095;50.992;6.798;2023-10-13T10:59:35;13.02;;;8.68;;
2177;SDS011;1095;50.992;6.798;2023-10-13T11:02:03;19.52;;;9.38;;
2177;SDS011;1095;50.992;6.798;2023-10-13T11:04:31;19.67;;;8.32;;
2177;SDS011;1095;50.992;6.798;2023-10-13T11:07:01;17.38;;;8.57;;
2177;SDS011;1095;50.992;6.798;2023-10-13T11:09:28;22.83;;;8.80;;
2177;SDS011;1095;50.992;6.798;2023-10-13T11:12:11;14.65;;;9.13;;
2177;SDS011;1095;50.992;6.798;2023-10-13T11:14:48;21.52;;;10.10;;
2177;SDS011;1095;50.992;6.798;2023-10-13T11:17:19;29.25;;;8.93;;
2177;SDS011;1095;50.992;6.798;2023-10-13T11:19:50;25.60;;;9.20;;
2177;SDS011;1095;50.992;6.798;2023-10-13T11:22:19;17.52;;;8.55;;
2177;SDS011;1095;50.992;6.798;2023-10-13T11:24:58;19.45;;;8.60;;
2177;SDS011;1095;50.992;6.798;2023-10-13T11:27:29;17.40;;;9.07;;
2177;SDS011;1095;50.992;6.798;2023-10-13T11:30:20;22.67;;;8.97;;
2177;SDS011;1095;50.992;6.798;2023-10-13T11:32:56;20.65;;;8.88;;
2177;SDS011;1095;50.992;6.798;2023-10-13T11:35:23;15.63;;;8.20;;
2177;SDS011;1095;50.992;6.798;2023-10-13T11:37:51;15.70;;;8.40;;
2177;SDS011;1095;50.992;6.798;2023-10-13T11:40:21;20.70;;;8.47;;
2177;SDS011;1095;50.992;6.798;2023-10-13T11:43:08;23.67;;;9.13;;
2177;SDS011;1095;50.992;6.798;2023-10-13T11:45:39;16.95;;;8.18;;
2177;SDS011;1095;50.992;6.798;2023-10-13T11:48:19;17.80;;;8.30;;
2177;SDS011;1095;50.992;6.798;2023-10-13T11:50:59;20.67;;;8.38;;
2177;SDS011;1095;50.992;6.798;2023-10-13T11:53:27;21.15;;;8.98;;
2177;SDS011;1095;50.992;6.798;2023-10-13T11:55:54;22.02;;;8.80;;
2177;SDS011;1095;50.992;6.798;2023-10-13T11:58:21;18.35;;;8.70;;
2177;SDS011;1095;50.992;6.798;2023-10-13T12:00:48;18.67;;;8.45;;
2177;SDS011;1095;50.992;6.798;2023-10-13T12:03:19;17.35;;;8.15;;
2177;SDS011;1095;50.992;6.798;2023-10-13T12:06:03;16.63;;;7.68;;
2177;SDS011;1095;50.992;6.798;2023-10-13T12:08:45;25.63;;;8.10;;
2177;SDS011;1095;50.992;6.798;2023-10-13T12:11:16;14.75;;;7.80;;
2177;SDS011;1095;50.992;6.798;2023-10-13T12:14:03;19.63;;;7.85;;
2177;SDS011;1095;50.992;6.798;2023-10-13T12:16:42;20.88;;;7.78;;
2177;SDS011;1095;50.992;6.798;2023-10-13T12:19:13;24.33;;;8.38;;
2177;SDS011;1095;50.992;6.798;2023-10-13T12:21:41;18.23;;;7.90;;
2177;SDS011;1095;50.992;6.798;2023-10-13T12:24:10;16.67;;;7.88;;
2177;SDS011;1095;50.992;6.798;2023-10-13T12:26:47;21.77;;;7.50;;
2177;SDS011;1095;50.992;6.798;2023-10-13T12:29:20;19.60;;;8.15;;
2177;SDS011;1095;50.992;6.798;2023-10-13T12:31:53;20.20;;;7.22;;
2177;SDS011;1095;50.992;6.798;2023-10-13T12:34:32;18.80;;;8.13;;
2177;SDS011;1095;50.992;6.798;2023-10-13T12:37:22;17.13;;;7.50;;
2177;SDS011;1095;50.992;6.798;2023-10-13T12:40:05;18.20;;;8.25;;
2177;SDS011;1095;50.992;6.798;2023-10-13T12:42:51;19.85;;;7.40;;
2177;SDS011;1095;50.992;6.798;2023-10-13T12:45:37;15.75;;;8.18;;
2177;SDS011;1095;50.992;6.798;2023-10-13T12:48:22;18.65;;;8.18;;
2177;SDS011;1095;50.992;6.798;2023-10-13T12:51:06;19.48;;;8.48;;
2177;SDS011;1095;50.992;6.798;2023-10-13T12:53:45;28.20;;;7.78;;
2177;SDS011;1095;50.992;6.798;2023-10-13T12:56:13;19.95;;;7.90;;
2177;SDS011;1095;50.992;6.798;2023-10-13T12:58:39;19.90;;;7.78;;
2177;SDS011;1095;50.992;6.798;2023-10-13T13:01:06;18.25;;;7.75;;
2177;SDS011;1095;50.992;6.798;2023-10-13T13:03:33;27.70;;;8.52;;
2177;SDS011;1095;50.992;6.798;2023-10-13T13:06:00;16.65;;;6.88;;
2177;SDS011;1095;50.992;6.798;2023-10-13T13:08:32;21.90;;;7.10;;
2177;SDS011;1095;50.992;6.798;2023-10-13T13:11:00;14.10;;;7.68;;
2177;SDS011;1095;50.992;6.798;2023-10-13T13:13:29;14.90;;;7.40;;
2177;SDS011;1095;50.992;6.798;2023-10-13T13:15:56;16.33;;;7.22;;
2177;SDS011;1095;50.992;6.798;2023-10-13T13:18:23;21.55;;;8.02;;
2177;SDS011;1095;50.992;6.798;2023-10-13T13:20:49;16.33;;;7.13;;
2177;SDS011;1095;50.992;6.798;2023-10-13T13:23:20;19.73;;;8.10;;
2177;SDS011;1095;50.992;6.798;2023-10-13T13:25:50;18.55;;;7.75;;
2177;SDS011;1095;50.992;6.798;2023-10-13T13:28:17;21.83;;;7.93;;
2177;SDS011;1095;50.992;6.798;2023-10-13T13:30:45;16.55;;;8.02;;
2177;SDS011;1095;50.992;6.798;2023-10-13T13:33:15;18.57;;;8.40;;
2177;SDS011;1095;50.992;6.798;2023-10-13T13:35:48;17.50;;;7.88;;
2177;SDS011;1095;50.992;6.798;2023-10-13T13:38:15;17.38;;;7.97;;
2177;SDS011;1095;50.992;6.798;2023-10-13T13:40:47;24.80;;;8.43;;
2177;SDS011;1095;50.992;6.798;2023-10-13T13:43:14;20.55;;;8.20;;
2177;SDS011;1095;50.992;6.798;2023-10-13T13:45:57;22.40;;;8.95;;
2177;SDS011;1095;50.992;6.798;2023-10-13T13:48:26;20.63;;;8.35;;
2177;SDS011;1095;50.992;6.798;2023-10-13T13:50:53;22.00;;;8.45;;
2177;SDS011;1095;50.992;6.798;2023-10-13T13:53:21;21.95;;;7.88;;
2177;SDS011;1095;50.992;6.798;2023-10-13T13:55:54;18.90;;;7.80;;
2177;SDS011;1095;50.992;6.798;2023-10-13T13:58:21;23.83;;;7.97;;
2177;SDS011;1095;50.992;6.798;2023-10-13T14:00:50;19.65;;;7.55;;
2177;SDS011;1095;50.992;6.798;2023-10-13T14:03:18;19.83;;;7.85;;
2177;SDS011;1095;50.992;6.798;2023-10-13T14:05:56;19.35;;;8.18;;
2177;SDS011;1095;50.992;6.798;2023-10-13T14:08:24;24.17;;;8.45;;
2177;SDS011;1095;50.992;6.798;2023-10-13T14:10:50;22.05;;;7.85;;
2177;SDS011;1095;50.992;6.798;2023-10-13T14:13:34;18.42;;;7.18;;
2177;SDS011;1095;50.992;6.798;2023-10-13T14:16:14;16.90;;;7.72;;
2177;SDS011;1095;50.992;6.798;2023-10-13T14:18:44;23.83;;;7.68;;
2177;SDS011;1095;50.992;6.798;2023-10-13T14:21:11;15.35;;;7.35;;
2177;SDS011;1095;50.992;6.798;2023-10-13T14:23:42;17.90;;;8.80;;
2177;SDS011;1095;50.992;6.798;2023-10-13T14:26:11;22.45;;;8.25;;
2177;SDS011;1095;50.992;6.798;2023-10-13T14:28:39;19.08;;;7.35;;
2177;SDS011;1095;50.992;6.798;2023-10-13T14:31:15;25.27;;;8.23;;
2177;SDS011;1095;50.992;6.798;2023-10-13T14:33:45;19.85;;;8.38;;
2177;SDS011;1095;50.992;6.798;2023-10-13T14:36:12;20.90;;;8.07;;
2177;SDS011;1095;50.992;6.798;2023-10-13T14:38:42;15.77;;;7.80;;
2177;SDS011;1095;50.992;6.798;2023-10-13T14:41:09;21.38;;;7.75;;
2177;SDS011;1095;50.992;6.798;2023-10-13T14:43:36;19.42;;;8.40;;
2177;SDS011;1095;50.992;6.798;2023-10-13T14:46:02;22.25;;;7.95;;
2177;SDS011;1095;50.992;6.798;2023-10-13T14:48:34;20.77;;;7.78;;
2177;SDS011;1095;50.992;6.798;2023-10-13T14:51:05;22.60;;;7.53;;
2177;SDS011;1095;50.992;6.798;2023-10-13T14:53:38;21.50;;;7.97;;
2177;SDS011;1095;50.992;6.798;2023-10-13T14:56:07;17.35;;;7.63;;
2177;SDS011;1095;50.992;6.798;2023-10-13T14:58:34;23.77;;;8.68;;
2177;SDS011;1095;50.992;6.798;2023-10-13T15:01:01;17.70;;;8.07;;
2177;SDS011;1095;50.992;6.798;2023-10-13T15:03:29;22.10;;;7.88;;
2177;SDS011;1095;50.992;6.798;2023-10-13T15:05:57;24.38;;;8.63;;
2177;SDS011;1095;50.992;6.798;2023-10-13T15:08:25;22.45;;;8.32;;
2177;SDS011;1095;50.992;6.798;2023-10-13T15:10:52;18.95;;;8.32;;
2177;SDS011;1095;50.992;6.798;2023-10-13T15:13:19;19.83;;;7.88;;
2177;SDS011;1095;50.992;6.798;2023-10-13T15:15:47;21.88;;;7.85;;
2177;SDS011;1095;50.992;6.798;2023-10-13T15:18:14;19.08;;;8.45;;
2177;SDS011;1095;50.992;6.798;2023-10-13T15:20:42;12.90;;;7.03;;
2177;SDS011;1095;50.992;6.798;2023-10-13T15:23:10;14.40;;;7.07;;
2177;SDS011;1095;50.992;6.798;2023-10-13T15:25:41;18.38;;;7.50;;
2177;SDS011;1095;50.992;6.798;2023-10-13T15:28:14;18.90;;;7.60;;
2177;SDS011;1095;50.992;6.798;2023-10-13T15:30:45;18.60;;;7.93;;
2177;SDS011;1095;50.992;6.798;2023-10-13T15:33:20;13.23;;;7.10;;
2177;SDS011;1095;50.992;6.798;2023-10-13T15:35:47;14.00;;;7.40;;
2177;SDS011;1095;50.992;6.798;2023-10-13T15:38:13;24.17;;;7.55;;
2177;SDS011;1095;50.992;6.798;2023-10-13T15:40:42;18.77;;;7.25;;